Time;durP1;ratioP1;P1;durP2;ratioP2;P2;SDS_P1;SDS_P2;PMS_P1;PMS_P2;Temp;Humidity;BMP_temperature;BMP_pressure;BME280_temperature;BME280_humidity;BME280_pressure;Samples;Min_cycle;Max_cycle;Signal;HPM_P1;HPM_P2
2022/08/27 00:01:17;;;;;;;8.30;2.03;;;;;;;;;;5012924;28;20036;-92
2022/08/27 00:03:44;;;;;;;3.30;1.63;;;;;;;;;;5013314;28;20400;-92
2022/08/27 00:06:14;;;;;;;8.18;2.17;;;;;;;;;;5006427;28;20042;-91
2022/08/27 00:08:41;;;;;;;8.02;2.38;;;;;;;;;;5003599;28;20485;-92
2022/08/27 00:11:07;;;;;;;3.65;1.75;;;;;;;;;;5025237;28;20026;-93
2022/08/27 00:13:34;;;;;;;5.15;1.83;;;;;;;;;;5010154;28;20049;-92
2022/08/27 00:16:00;;;;;;;4.07;1.58;;;;;;;;;;5003412;28;20112;-91
2022/08/27 00:18:26;;;;;;;2.30;1.60;;;;;;;;;;5023156;28;20029;-92
2022/08/27 00:20:52;;;;;;;9.63;2.00;;;;;;;;;;5012242;28;20033;-92
2022/08/27 00:23:18;;;;;;;7.15;2.00;;;;;;;;;;5007351;28;20037;-92
2022/08/27 00:25:44;;;;;;;7.43;1.90;;;;;;;;;;5021829;28;20040;-92
2022/08/27 00:28:10;;;;;;;11.95;2.25;;;;;;;;;;5007245;28;20034;-92
2022/08/27 00:30:36;;;;;;;8.65;1.80;;;;;;;;;;5011959;28;20040;-91
2022/08/27 00:33:03;;;;;;;15.07;2.22;;;;;;;;;;5018217;28;20032;-92
2022/08/27 00:35:29;;;;;;;5.70;1.60;;;;;;;;;;5011383;28;20056;-92
2022/08/27 00:37:56;;;;;;;12.10;2.00;;;;;;;;;;5005229;28;20069;-92
2022/08/27 00:40:22;;;;;;;10.70;2.03;;;;;;;;;;5018250;28;20057;-91
2022/08/27 00:42:49;;;;;;;4.10;1.30;;;;;;;;;;5021118;28;20116;-92
2022/08/27 00:45:16;;;;;;;5.25;1.60;;;;;;;;;;5017218;28;20064;-93
2022/08/27 00:47:46;;;;;;;8.20;1.70;;;;;;;;;;5023728;28;20044;-91
2022/08/27 00:50:14;;;;;;;12.80;3.63;;;;;;;;;;5013670;28;20025;-91
2022/08/27 00:52:46;;;;;;;8.02;2.50;;;;;;;;;;5027840;28;20098;-91
2022/08/27 00:55:14;;;;;;;8.88;1.73;;;;;;;;;;5017423;28;20040;-90
2022/08/27 00:57:41;;;;;;;6.43;1.83;;;;;;;;;;5028738;28;20032;-92
2022/08/27 01:00:09;;;;;;;9.40;1.63;;;;;;;;;;5017199;28;20025;-91
2022/08/27 01:02:36;;;;;;;8.35;2.05;;;;;;;;;;5023245;28;20052;-92
2022/08/27 01:05:02;;;;;;;6.97;1.60;;;;;;;;;;5018315;28;20128;-91
2022/08/27 01:07:29;;;;;;;7.65;1.80;;;;;;;;;;5019147;28;20123;-91
2022/08/27 01:09:57;;;;;;;7.95;1.83;;;;;;;;;;5013705;28;20029;-91
2022/08/27 01:12:24;;;;;;;4.25;1.42;;;;;;;;;;5017337;28;20393;-91
2022/08/27 01:14:50;;;;;;;10.20;2.10;;;;;;;;;;5007433;28;20117;-91
2022/08/27 01:17:16;;;;;;;6.03;1.70;;;;;;;;;;5010233;28;20128;-91
2022/08/27 01:19:50;;;;;;;14.55;2.30;;;;;;;;;;5008825;28;20037;-91
2022/08/27 01:22:19;;;;;;;5.03;1.70;;;;;;;;;;5016259;28;20376;-92
2022/08/27 01:24:47;;;;;;;4.70;1.85;;;;;;;;;;5021443;28;20062;-92
2022/08/27 01:27:16;;;;;;;9.73;1.92;;;;;;;;;;5014376;28;20044;-92
2022/08/27 01:29:42;;;;;;;8.48;1.98;;;;;;;;;;5021487;28;20021;-91
2022/08/27 01:32:10;;;;;;;6.05;2.08;;;;;;;;;;5034294;28;20078;-93
2022/08/27 01:34:37;;;;;;;4.90;2.28;;;;;;;;;;5025183;28;20115;-92
2022/08/27 01:37:05;;;;;;;10.60;2.10;;;;;;;;;;5022430;28;20029;-93
2022/08/27 01:39:32;;;;;;;8.35;3.72;;;;;;;;;;5005012;28;20083;-91
2022/08/27 01:42:06;;;;;;;7.95;1.80;;;;;;;;;;5008202;28;20065;-91
2022/08/27 01:44:41;;;;;;;6.65;1.85;;;;;;;;;;5020397;28;20454;-92
2022/08/27 01:47:07;;;;;;;7.97;2.17;;;;;;;;;;5017260;28;20048;-92
2022/08/27 01:49:33;;;;;;;6.03;1.88;;;;;;;;;;5008927;28;20092;-92
2022/08/27 01:51:59;;;;;;;5.40;2.13;;;;;;;;;;5008806;28;20132;-92
2022/08/27 01:54:25;;;;;;;2.75;1.75;;;;;;;;;;5005456;28;20108;-92
2022/08/27 01:56:51;;;;;;;5.28;1.52;;;;;;;;;;4988060;28;20038;-92
2022/08/27 01:59:17;;;;;;;6.70;2.00;;;;;;;;;;4986164;28;20046;-92
2022/08/27 02:01:46;;;;;;;8.55;2.00;;;;;;;;;;4994218;28;20030;-92
2022/08/27 02:04:12;;;;;;;5.05;1.70;;;;;;;;;;4988297;28;20165;-92
2022/08/27 02:06:38;;;;;;;5.85;2.22;;;;;;;;;;4989905;28;20128;-91
2022/08/27 02:09:04;;;;;;;10.82;1.98;;;;;;;;;;4988707;28;20565;-92
2022/08/27 02:11:30;;;;;;;5.07;2.10;;;;;;;;;;4992342;28;20029;-91
2022/08/27 02:13:56;;;;;;;7.07;1.90;;;;;;;;;;4990519;28;20497;-91
2022/08/27 02:16:22;;;;;;;6.90;2.10;;;;;;;;;;4989347;28;20033;-91
2022/08/27 02:18:48;;;;;;;4.30;1.65;;;;;;;;;;4994731;28;20544;-92
2022/08/27 02:21:14;;;;;;;7.63;1.70;;;;;;;;;;4992896;28;20041;-91
2022/08/27 02:23:41;;;;;;;7.15;1.98;;;;;;;;;;4989375;28;20307;-92
2022/08/27 02:26:07;;;;;;;3.67;2.03;;;;;;;;;;4986828;28;20039;-90
2022/08/27 02:28:34;;;;;;;4.90;1.92;;;;;;;;;;4996915;28;20026;-91
2022/08/27 02:31:00;;;;;;;3.72;1.63;;;;;;;;;;4997430;28;20022;-92
2022/08/27 02:33:26;;;;;;;7.30;1.98;;;;;;;;;;4985367;28;20038;-91
2022/08/27 02:35:52;;;;;;;6.68;2.30;;;;;;;;;;4989885;28;20359;-91
2022/08/27 02:38:19;;;;;;;5.75;1.73;;;;;;;;;;5000566;28;20026;-91
2022/08/27 02:40:45;;;;;;;5.90;1.95;;;;;;;;;;4986242;28;20034;-91
2022/08/27 02:43:11;;;;;;;3.08;1.70;;;;;;;;;;4998056;28;20542;-92
2022/08/27 02:45:37;;;;;;;3.95;1.90;;;;;;;;;;5026949;28;20497;-92
2022/08/27 02:48:04;;;;;;;7.30;2.45;;;;;;;;;;4994617;28;20052;-91
2022/08/27 02:50:30;;;;;;;7.82;2.03;;;;;;;;;;4989029;28;20026;-92
2022/08/27 02:53:04;;;;;;;5.15;2.08;;;;;;;;;;5005476;28;20030;-91
2022/08/27 02:55:30;;;;;;;3.97;2.25;;;;;;;;;;5001750;28;20651;-91
2022/08/27 02:57:56;;;;;;;5.93;2.30;;;;;;;;;;5002639;28;20598;-91
2022/08/27 03:00:23;;;;;;;9.13;2.10;;;;;;;;;;4986441;28;20037;-92
2022/08/27 03:02:50;;;;;;;6.57;2.20;;;;;;;;;;5002084;28;20030;-92
2022/08/27 03:05:17;;;;;;;7.30;2.03;;;;;;;;;;5003090;28;20504;-90
2022/08/27 03:07:43;;;;;;;4.25;2.35;;;;;;;;;;5000918;28;20378;-91
2022/08/27 03:10:10;;;;;;;7.28;2.15;;;;;;;;;;4991272;28;20030;-91
2022/08/27 03:12:37;;;;;;;5.78;2.65;;;;;;;;;;5000453;28;20487;-91
2022/08/27 03:15:07;;;;;;;12.52;2.13;;;;;;;;;;5011915;28;20033;-91
2022/08/27 03:20:17;;;;;;;8.20;3.10;;;;;;;;;;5008048;28;20417;-92
2022/08/27 03:22:44;;;;;;;10.48;2.63;;;;;;;;;;5002406;28;20374;-92
2022/08/27 03:25:10;;;;;;;3.63;2.22;;;;;;;;;;4999673;28;20514;-91
2022/08/27 03:27:36;;;;;;;12.82;2.55;;;;;;;;;;4999063;28;20586;-92
2022/08/27 03:30:04;;;;;;;8.52;2.00;;;;;;;;;;5000443;28;20041;-91
2022/08/27 03:32:30;;;;;;;7.63;1.75;;;;;;;;;;5002462;28;20026;-93
2022/08/27 03:34:57;;;;;;;7.82;2.20;;;;;;;;;;5003205;28;20265;-92
2022/08/27 03:37:23;;;;;;;8.07;2.05;;;;;;;;;;5007918;28;20044;-91
2022/08/27 03:39:49;;;;;;;6.93;2.30;;;;;;;;;;4997945;28;20029;-91
2022/08/27 03:42:15;;;;;;;6.57;1.90;;;;;;;;;;4991833;28;20037;-92
2022/08/27 03:44:41;;;;;;;10.63;2.63;;;;;;;;;;5006927;28;20041;-91
2022/08/27 03:47:07;;;;;;;13.07;2.20;;;;;;;;;;5001706;28;20465;-91
2022/08/27 03:49:40;;;;;;;7.32;2.63;;;;;;;;;;4984005;28;20029;-92
2022/08/27 03:52:07;;;;;;;5.57;2.33;;;;;;;;;;5003361;28;20034;-92
2022/08/27 03:54:37;;;;;;;6.07;2.15;;;;;;;;;;5002380;28;20059;-92
2022/08/27 03:57:03;;;;;;;4.60;1.95;;;;;;;;;;5008550;28;20038;-91
2022/08/27 03:59:30;;;;;;;8.13;2.45;;;;;;;;;;5000543;28;20091;-92
2022/08/27 04:01:56;;;;;;;8.68;2.40;;;;;;;;;;4998374;28;20038;-91
2022/08/27 04:04:23;;;;;;;6.70;2.10;;;;;;;;;;5015055;28;20037;-92
2022/08/27 04:06:49;;;;;;;5.93;1.77;;;;;;;;;;5007064;28;20037;-92
2022/08/27 04:09:15;;;;;;;9.27;2.25;;;;;;;;;;4984638;28;20496;-91
2022/08/27 04:11:41;;;;;;;7.22;2.05;;;;;;;;;;4996649;28;20056;-92
2022/08/27 04:14:07;;;;;;;7.40;1.95;;;;;;;;;;4989546;28;20037;-91
2022/08/27 04:16:34;;;;;;;5.85;2.22;;;;;;;;;;5005903;28;20422;-91
2022/08/27 04:19:00;;;;;;;7.25;2.53;;;;;;;;;;5007165;28;20096;-91
2022/08/27 04:21:26;;;;;;;6.57;2.35;;;;;;;;;;5010897;28;20086;-92
2022/08/27 04:23:52;;;;;;;4.95;2.08;;;;;;;;;;4991750;28;20057;-92
2022/08/27 04:26:18;;;;;;;11.77;2.33;;;;;;;;;;5009457;28;20029;-91
2022/08/27 04:28:45;;;;;;;9.45;2.30;;;;;;;;;;5001641;28;20063;-91
2022/08/27 04:31:11;;;;;;;8.15;2.15;;;;;;;;;;4989238;28;20045;-91
2022/08/27 04:33:37;;;;;;;10.32;2.30;;;;;;;;;;5015799;28;20050;-92
2022/08/27 04:36:04;;;;;;;11.35;2.47;;;;;;;;;;5007784;28;20160;-92
2022/08/27 04:38:31;;;;;;;6.25;2.35;;;;;;;;;;5003156;28;20180;-92
2022/08/27 04:43:42;;;;;;;10.55;2.72;;;;;;;;;;5007465;28;20057;-91
2022/08/27 04:46:08;;;;;;;5.07;2.13;;;;;;;;;;5014616;28;20558;-91
2022/08/27 04:48:34;;;;;;;4.43;2.70;;;;;;;;;;4991231;28;20129;-91
2022/08/27 04:51:00;;;;;;;7.70;2.53;;;;;;;;;;5005749;28;20477;-92
2022/08/27 04:53:26;;;;;;;3.58;2.30;;;;;;;;;;5012272;28;20041;-92
2022/08/27 04:55:53;;;;;;;3.67;2.25;;;;;;;;;;5021042;28;20029;-92
2022/08/27 04:58:20;;;;;;;5.68;2.33;;;;;;;;;;5027248;28;20033;-91
2022/08/27 05:00:48;;;;;;;8.38;2.70;;;;;;;;;;5017794;28;20029;-91
2022/08/27 05:03:14;;;;;;;7.43;1.58;;;;;;;;;;5026396;28;20520;-92
2022/08/27 05:05:41;;;;;;;10.52;2.20;;;;;;;;;;5004914;28;20037;-91
2022/08/27 05:08:09;;;;;;;7.05;2.22;;;;;;;;;;5013859;28;20049;-92
2022/08/27 05:10:42;;;;;;;4.60;1.65;;;;;;;;;;5018774;28;20159;-91
2022/08/27 05:13:08;;;;;;;3.95;2.22;;;;;;;;;;5023196;28;20653;-91
2022/08/27 05:15:34;;;;;;;5.43;1.95;;;;;;;;;;5011474;28;20056;-92
2022/08/27 05:18:01;;;;;;;15.00;3.53;;;;;;;;;;5030324;28;20097;-92
2022/08/27 05:20:28;;;;;;;6.68;1.88;;;;;;;;;;5012979;28;20033;-92
2022/08/27 05:22:54;;;;;;;10.73;2.05;;;;;;;;;;5044846;28;20048;-91
2022/08/27 05:25:20;;;;;;;6.65;1.95;;;;;;;;;;5012053;28;20033;-92
2022/08/27 05:27:46;;;;;;;5.53;2.45;;;;;;;;;;5021908;28;20140;-92
2022/08/27 05:30:12;;;;;;;7.70;2.42;;;;;;;;;;5011847;28;20231;-92
2022/08/27 05:32:38;;;;;;;10.18;1.90;;;;;;;;;;5021910;28;20057;-93
2022/08/27 05:35:05;;;;;;;4.38;1.73;;;;;;;;;;5006983;28;20034;-92
2022/08/27 05:37:32;;;;;;;7.63;1.80;;;;;;;;;;5005084;28;20699;-92
2022/08/27 05:39:59;;;;;;;7.75;2.53;;;;;;;;;;5019784;28;20136;-92
2022/08/27 05:42:25;;;;;;;6.43;2.08;;;;;;;;;;5008288;28;20113;-92
2022/08/27 05:44:51;;;;;;;9.73;2.05;;;;;;;;;;5040406;28;20029;-91
2022/08/27 05:47:17;;;;;;;7.65;1.48;;;;;;;;;;5037821;28;20032;-91
2022/08/27 05:49:44;;;;;;;4.18;1.90;;;;;;;;;;5009068;28;21153;-91
2022/08/27 05:52:11;;;;;;;9.73;2.17;;;;;;;;;;5020409;28;20040;-91
2022/08/27 05:54:37;;;;;;;6.45;2.00;;;;;;;;;;5016894;28;20060;-91
2022/08/27 05:57:03;;;;;;;9.80;1.85;;;;;;;;;;5010740;28;20032;-91
2022/08/27 06:02:14;;;;;;;6.95;1.77;;;;;;;;;;5024715;28;20105;-92
2022/08/27 06:04:40;;;;;;;5.85;1.83;;;;;;;;;;5016435;28;20468;-92
2022/08/27 06:07:09;;;;;;;10.75;2.70;;;;;;;;;;5003176;28;20095;-93
2022/08/27 06:09:35;;;;;;;3.75;2.10;;;;;;;;;;5030228;28;20112;-92
2022/08/27 06:12:02;;;;;;;6.20;2.33;;;;;;;;;;5013981;28;20025;-91
2022/08/27 06:14:28;;;;;;;5.15;1.80;;;;;;;;;;5024621;28;20020;-92
2022/08/27 06:16:54;;;;;;;6.43;2.38;;;;;;;;;;5006145;28;20032;-91
2022/08/27 06:19:20;;;;;;;11.50;2.08;;;;;;;;;;5024005;28;20044;-91
2022/08/27 06:21:46;;;;;;;7.32;1.95;;;;;;;;;;5010350;28;20385;-92
2022/08/27 06:24:12;;;;;;;4.05;2.20;;;;;;;;;;5014925;28;20030;-91
2022/08/27 06:26:39;;;;;;;11.13;2.00;;;;;;;;;;5002934;28;20033;-91
2022/08/27 06:29:06;;;;;;;9.38;2.30;;;;;;;;;;5017641;28;20029;-91
2022/08/27 06:31:34;;;;;;;9.48;2.13;;;;;;;;;;5017196;28;20673;-92
2022/08/27 06:34:01;;;;;;;10.70;1.95;;;;;;;;;;5018532;28;20022;-92
2022/08/27 06:36:28;;;;;;;6.90;1.95;;;;;;;;;;5021045;28;20108;-91
2022/08/27 06:38:55;;;;;;;11.27;2.13;;;;;;;;;;5016669;28;20035;-92
2022/08/27 06:41:22;;;;;;;4.82;1.77;;;;;;;;;;5019469;28;20119;-92
2022/08/27 06:43:48;;;;;;;12.90;2.05;;;;;;;;;;5025460;28;20028;-92
2022/08/27 06:46:17;;;;;;;7.43;2.45;;;;;;;;;;5017081;28;20477;-91
2022/08/27 06:48:46;;;;;;;5.53;1.73;;;;;;;;;;5020241;28;20048;-92
2022/08/27 06:51:15;;;;;;;8.80;2.28;;;;;;;;;;5007290;28;20107;-91
2022/08/27 06:53:41;;;;;;;3.15;1.58;;;;;;;;;;5015456;28;20948;-92
2022/08/27 06:56:08;;;;;;;7.53;1.75;;;;;;;;;;5019918;28;20519;-92
2022/08/27 06:58:34;;;;;;;6.50;1.88;;;;;;;;;;5005942;28;20029;-91
2022/08/27 07:01:01;;;;;;;3.22;1.35;;;;;;;;;;5021261;28;20029;-92
2022/08/27 07:03:27;;;;;;;4.05;1.80;;;;;;;;;;5019377;28;20527;-91
2022/08/27 07:05:53;;;;;;;8.25;1.77;;;;;;;;;;5006244;28;20033;-91
2022/08/27 07:08:19;;;;;;;4.63;2.03;;;;;;;;;;5019448;28;20591;-91
2022/08/27 07:10:45;;;;;;;10.85;3.20;;;;;;;;;;5007985;28;20124;-92
2022/08/27 07:13:11;;;;;;;6.65;2.20;;;;;;;;;;5001699;28;20044;-91
2022/08/27 07:15:40;;;;;;;8.82;2.13;;;;;;;;;;5007242;28;20044;-92
2022/08/27 07:18:06;;;;;;;7.07;2.13;;;;;;;;;;5014318;28;20038;-91
2022/08/27 07:20:42;;;;;;;7.63;1.58;;;;;;;;;;5004542;28;20352;-91
2022/08/27 07:23:09;;;;;;;7.60;1.58;;;;;;;;;;5021711;28;20041;-91
2022/08/27 07:25:35;;;;;;;8.18;1.77;;;;;;;;;;5020817;28;20063;-93
2022/08/27 07:28:01;;;;;;;8.93;1.88;;;;;;;;;;5024617;28;20110;-90
2022/08/27 07:30:27;;;;;;;11.07;1.67;;;;;;;;;;5006778;28;20059;-92
2022/08/27 07:32:53;;;;;;;10.68;2.08;;;;;;;;;;5019378;28;20032;-92
2022/08/27 07:35:20;;;;;;;10.93;2.67;;;;;;;;;;5009098;28;20029;-92
2022/08/27 07:37:46;;;;;;;5.05;1.80;;;;;;;;;;5005888;28;20138;-91
2022/08/27 07:40:13;;;;;;;6.50;1.77;;;;;;;;;;5023111;28;20593;-92
2022/08/27 07:45:25;;;;;;;8.07;1.50;;;;;;;;;;5036246;28;20066;-92
2022/08/27 07:47:51;;;;;;;13.07;1.75;;;;;;;;;;5021413;28;20033;-92
2022/08/27 07:50:17;;;;;;;4.93;1.70;;;;;;;;;;5002878;28;20101;-92
2022/08/27 07:52:43;;;;;;;10.23;1.63;;;;;;;;;;5019556;28;20036;-91
2022/08/27 07:55:10;;;;;;;13.38;2.67;;;;;;;;;;5020620;28;20475;-92
2022/08/27 07:57:37;;;;;;;8.68;1.77;;;;;;;;;;5011305;28;20484;-91
2022/08/27 08:00:04;;;;;;;9.98;1.58;;;;;;;;;;5020450;28;20076;-91
2022/08/27 08:02:30;;;;;;;6.93;1.45;;;;;;;;;;5027140;28;20063;-91
2022/08/27 08:04:56;;;;;;;11.57;1.75;;;;;;;;;;5013349;28;20500;-93
2022/08/27 08:07:23;;;;;;;9.43;1.90;;;;;;;;;;5023092;28;20776;-92
2022/08/27 08:09:49;;;;;;;7.90;1.50;;;;;;;;;;5011761;28;20021;-92
2022/08/27 08:12:16;;;;;;;5.57;1.67;;;;;;;;;;5020098;28;20041;-92
2022/08/27 08:14:42;;;;;;;6.18;1.40;;;;;;;;;;5011784;28;20528;-92
2022/08/27 08:17:08;;;;;;;7.78;2.25;;;;;;;;;;5017444;28;20036;-92
2022/08/27 08:19:34;;;;;;;5.07;1.45;;;;;;;;;;5014381;28;20040;-92
2022/08/27 08:22:00;;;;;;;6.75;1.50;;;;;;;;;;5028057;28;20123;-92
2022/08/27 08:24:27;;;;;;;11.80;1.50;;;;;;;;;;5009295;28;20523;-92
2022/08/27 08:26:53;;;;;;;8.18;1.42;;;;;;;;;;5008970;28;20128;-93
2022/08/27 08:29:19;;;;;;;6.90;1.33;;;;;;;;;;5008679;28;20101;-91
2022/08/27 08:31:45;;;;;;;5.50;1.27;;;;;;;;;;5013337;28;20031;-92
2022/08/27 08:34:11;;;;;;;7.65;1.50;;;;;;;;;;5017748;28;20033;-92
2022/08/27 08:36:37;;;;;;;12.65;2.22;;;;;;;;;;5025954;28;20033;-92
2022/08/27 08:39:03;;;;;;;6.65;1.42;;;;;;;;;;5018499;28;20338;-92
2022/08/27 08:41:43;;;;;;;7.03;1.52;;;;;;;;;;5025622;28;20036;-91
2022/08/27 08:44:31;;;;;;;6.18;1.40;;;;;;;;;;5023075;28;20037;-93
2022/08/27 08:47:16;;;;;;;5.63;1.92;;;;;;;;;;5028602;28;20033;-92
2022/08/27 08:50:02;;;;;;;4.55;1.30;;;;;;;;;;5021421;28;20029;-92
2022/08/27 08:52:36;;;;;;;9.52;1.67;;;;;;;;;;5021691;28;20033;-92
2022/08/27 08:55:08;;;;;;;4.78;1.77;;;;;;;;;;5025645;28;20041;-92
2022/08/27 08:57:38;;;;;;;8.27;1.90;;;;;;;;;;5025266;28;20041;-91
2022/08/27 09:00:11;;;;;;;7.43;1.83;;;;;;;;;;5022528;28;20555;-91
2022/08/27 09:02:37;;;;;;;6.88;1.67;;;;;;;;;;5026037;28;20107;-92
2022/08/27 09:05:04;;;;;;;10.70;1.70;;;;;;;;;;5020655;28;20044;-92
2022/08/27 09:07:44;;;;;;;5.43;1.50;;;;;;;;;;5014298;28;20044;-91
2022/08/27 09:10:19;;;;;;;4.43;1.42;;;;;;;;;;5018765;28;20039;-92
2022/08/27 09:12:45;;;;;;;6.55;1.67;;;;;;;;;;5019673;28;20503;-92
2022/08/27 09:15:15;;;;;;;8.98;1.65;;;;;;;;;;5012574;28;20053;-91
2022/08/27 09:17:41;;;;;;;7.07;1.55;;;;;;;;;;5025731;28;20489;-91
2022/08/27 09:20:14;;;;;;;5.53;1.25;;;;;;;;;;5018051;28;20072;-92
2022/08/27 09:22:53;;;;;;;4.50;1.35;;;;;;;;;;5038861;28;20482;-90
2022/08/27 09:25:24;;;;;;;4.65;1.25;;;;;;;;;;5022218;28;20036;-92
2022/08/27 09:27:50;;;;;;;14.63;2.10;;;;;;;;;;5019962;28;20373;-92
2022/08/27 09:30:22;;;;;;;8.38;2.03;;;;;;;;;;5024135;28;20058;-92
2022/08/27 09:32:56;;;;;;;3.97;1.38;;;;;;;;;;5020642;28;20539;-91
2022/08/27 09:35:23;;;;;;;6.38;1.80;;;;;;;;;;5026444;28;20045;-92
2022/08/27 09:37:51;;;;;;;6.43;1.30;;;;;;;;;;5037377;28;20029;-92
2022/08/27 09:40:41;;;;;;;3.42;1.58;;;;;;;;;;5029933;28;20030;-91
2022/08/27 09:43:16;;;;;;;6.72;1.63;;;;;;;;;;5024663;28;20029;-92
2022/08/27 09:45:50;;;;;;;7.68;2.05;;;;;;;;;;5029132;28;20029;-92
2022/08/27 09:48:21;;;;;;;3.10;1.60;;;;;;;;;;5035923;28;20169;-91
2022/08/27 09:50:50;;;;;;;5.63;1.75;;;;;;;;;;5025117;28;20488;-91
2022/08/27 09:53:31;;;;;;;3.38;1.42;;;;;;;;;;5021067;28;20017;-91
2022/08/27 09:55:58;;;;;;;6.40;1.83;;;;;;;;;;5008462;28;20056;-91
2022/08/27 09:58:27;;;;;;;3.60;1.40;;;;;;;;;;5002874;28;20499;-91
2022/08/27 10:01:00;;;;;;;5.35;1.33;;;;;;;;;;4999625;28;20056;-92
2022/08/27 10:03:27;;;;;;;6.18;1.80;;;;;;;;;;5000118;28;20029;-91
2022/08/27 10:05:53;;;;;;;4.38;1.23;;;;;;;;;;4987472;28;20041;-92
2022/08/27 10:08:23;;;;;;;5.13;1.70;;;;;;;;;;4987690;28;20427;-92
2022/08/27 10:10:53;;;;;;;6.13;1.52;;;;;;;;;;5004902;28;20548;-91
2022/08/27 10:13:22;;;;;;;8.02;1.80;;;;;;;;;;5001474;28;20030;-92
2022/08/27 10:15:52;;;;;;;4.80;1.63;;;;;;;;;;5000311;28;20026;-91
2022/08/27 10:18:26;;;;;;;4.85;1.50;;;;;;;;;;5006211;28;20033;-92
2022/08/27 10:20:59;;;;;;;7.73;1.80;;;;;;;;;;5001906;28;20033;-92
2022/08/27 10:23:41;;;;;;;4.80;1.50;;;;;;;;;;5001084;28;20030;-92
2022/08/27 10:26:19;;;;;;;3.78;1.70;;;;;;;;;;5004768;28;20037;-91
2022/08/27 10:28:48;;;;;;;7.40;1.42;;;;;;;;;;5006326;28;20038;-92
2022/08/27 10:31:22;;;;;;;9.50;1.55;;;;;;;;;;5001816;28;20497;-91
2022/08/27 10:33:48;;;;;;;7.57;1.35;;;;;;;;;;5012587;28;20037;-91
2022/08/27 10:36:33;;;;;;;6.25;1.80;;;;;;;;;;4997404;28;20030;-91
2022/08/27 10:39:03;;;;;;;7.20;1.65;;;;;;;;;;5005743;28;20037;-92
2022/08/27 10:41:33;;;;;;;7.05;1.90;;;;;;;;;;4997827;28;20389;-92
2022/08/27 10:44:11;;;;;;;6.95;1.67;;;;;;;;;;5002868;28;20033;-91
2022/08/27 10:46:52;;;;;;;7.28;1.52;;;;;;;;;;5004412;28;20072;-93
2022/08/27 10:49:45;;;;;;;9.82;1.52;;;;;;;;;;5003431;28;20079;-91
2022/08/27 10:52:30;;;;;;;5.90;1.42;;;;;;;;;;5011937;28;20545;-91
2022/08/27 10:55:10;;;;;;;6.97;1.50;;;;;;;;;;5017524;28;20474;-91
2022/08/27 10:57:39;;;;;;;8.23;1.65;;;;;;;;;;5028372;28;20372;-93
2022/08/27 11:00:14;;;;;;;6.85;1.92;;;;;;;;;;5023187;28;20090;-92
2022/08/27 11:02:46;;;;;;;5.40;1.30;;;;;;;;;;5026668;28;20038;-92
2022/08/27 11:05:16;;;;;;;5.47;1.50;;;;;;;;;;5026845;28;20092;-91
2022/08/27 11:07:46;;;;;;;6.45;1.15;;;;;;;;;;5021714;28;20034;-92
2022/08/27 11:10:25;;;;;;;7.07;1.65;;;;;;;;;;5027010;28;20025;-91
2022/08/27 11:12:53;;;;;;;4.75;1.50;;;;;;;;;;5032876;28;20047;-91
2022/08/27 11:15:22;;;;;;;6.85;1.45;;;;;;;;;;5020643;28;20109;-92
2022/08/27 11:17:57;;;;;;;11.70;1.65;;;;;;;;;;5019448;28;20033;-91
2022/08/27 11:20:26;;;;;;;3.67;1.55;;;;;;;;;;5018993;28;20021;-92
2022/08/27 11:23:15;;;;;;;7.10;1.35;;;;;;;;;;5029790;28;20546;-91
2022/08/27 11:25:52;;;;;;;18.38;1.60;;;;;;;;;;5011240;28;20267;-92
2022/08/27 11:28:24;;;;;;;8.18;1.88;;;;;;;;;;5022950;28;20531;-91
2022/08/27 11:30:59;;;;;;;9.57;2.60;;;;;;;;;;5028076;28;20503;-92
2022/08/27 11:33:35;;;;;;;2.13;0.80;;;;;;;;;;5028649;28;20124;-91
2022/08/27 11:36:24;;;;;;;3.50;1.20;;;;;;;;;;5025572;28;20130;-92
2022/08/27 11:38:59;;;;;;;5.05;1.00;;;;;;;;;;5019450;28;20351;-92
2022/08/27 11:41:44;;;;;;;8.48;1.25;;;;;;;;;;5030916;28;20033;-92
2022/08/27 11:44:12;;;;;;;7.63;1.40;;;;;;;;;;5035091;28;20345;-92
2022/08/27 11:46:42;;;;;;;6.65;1.48;;;;;;;;;;5025410;28;20033;-92
2022/08/27 11:49:08;;;;;;;6.75;1.55;;;;;;;;;;5031387;28;20127;-91
2022/08/27 11:51:36;;;;;;;7.20;1.40;;;;;;;;;;5011058;28;20103;-92
2022/08/27 11:54:27;;;;;;;3.50;1.30;;;;;;;;;;5022257;28;20030;-92
2022/08/27 11:56:53;;;;;;;5.18;1.30;;;;;;;;;;5029217;28;20030;-91
2022/08/27 11:59:27;;;;;;;3.15;1.00;;;;;;;;;;5015332;28;20326;-92
2022/08/27 12:01:55;;;;;;;7.50;1.47;;;;;;;;;;5026637;28;20500;-92
2022/08/27 12:04:30;;;;;;;8.35;1.50;;;;;;;;;;5035614;28;20029;-92
2022/08/27 12:07:00;;;;;;;6.20;1.58;;;;;;;;;;5024849;28;20018;-92
2022/08/27 12:09:27;;;;;;;5.38;1.10;;;;;;;;;;5032593;28;20025;-91
2022/08/27 12:12:02;;;;;;;4.53;1.15;;;;;;;;;;5031805;28;20582;-92
2022/08/27 12:14:31;;;;;;;3.55;1.38;;;;;;;;;;5030850;28;20017;-91
2022/08/27 12:17:03;;;;;;;5.28;1.45;;;;;;;;;;5027783;28;20033;-90
2022/08/27 12:19:41;;;;;;;6.13;1.20;;;;;;;;;;5030300;28;20025;-90
2022/08/27 12:22:07;;;;;;;5.20;1.08;;;;;;;;;;5034452;28;20032;-92
2022/08/27 12:24:40;;;;;;;3.47;1.10;;;;;;;;;;5024261;28;20480;-92
2022/08/27 12:27:23;;;;;;;5.45;1.33;;;;;;;;;;5035268;28;20033;-92
2022/08/27 12:29:54;;;;;;;4.00;1.10;;;;;;;;;;5020768;28;20693;-92
2022/08/27 12:32:36;;;;;;;7.53;1.70;;;;;;;;;;5032005;28;20033;-92
2022/08/27 12:35:16;;;;;;;6.85;0.88;;;;;;;;;;5026257;28;20093;-92
2022/08/27 12:37:44;;;;;;;4.75;1.27;;;;;;;;;;5029164;28;20432;-91
2022/08/27 12:40:18;;;;;;;11.68;1.40;;;;;;;;;;5029381;28;20033;-92
2022/08/27 12:42:44;;;;;;;8.95;1.13;;;;;;;;;;5023154;28;20025;-91
2022/08/27 12:45:17;;;;;;;7.60;1.20;;;;;;;;;;5013405;28;20057;-92
2022/08/27 12:47:43;;;;;;;5.38;1.50;;;;;;;;;;5026997;28;20025;-91
2022/08/27 12:50:11;;;;;;;4.95;1.23;;;;;;;;;;5025141;28;20030;-91
2022/08/27 12:52:37;;;;;;;2.58;1.10;;;;;;;;;;5030440;28;20539;-92
2022/08/27 12:55:15;;;;;;;4.78;0.93;;;;;;;;;;5026719;28;20040;-92
2022/08/27 12:57:51;;;;;;;4.65;1.17;;;;;;;;;;5030192;28;20037;-92
2022/08/27 13:00:22;;;;;;;4.20;1.25;;;;;;;;;;5029600;28;20119;-91
2022/08/27 13:02:54;;;;;;;2.67;1.10;;;;;;;;;;5031880;28;20075;-91
2022/08/27 13:05:21;;;;;;;7.05;1.17;;;;;;;;;;5016241;28;20451;-92
2022/08/27 13:07:48;;;;;;;5.43;1.00;;;;;;;;;;5009316;28;20037;-92
2022/08/27 13:10:15;;;;;;;2.83;1.10;;;;;;;;;;5020309;28;20469;-91
2022/08/27 13:12:41;;;;;;;4.18;1.35;;;;;;;;;;5025150;28;20033;-92
2022/08/27 13:15:09;;;;;;;4.55;1.50;;;;;;;;;;5019033;28;20033;-92
2022/08/27 13:17:40;;;;;;;3.63;1.30;;;;;;;;;;5020889;28;20675;-92
2022/08/27 13:20:13;;;;;;;3.97;1.10;;;;;;;;;;5025639;28;20033;-92
2022/08/27 13:22:42;;;;;;;4.13;1.08;;;;;;;;;;5040443;28;20074;-91
2022/08/27 13:25:19;;;;;;;10.63;1.40;;;;;;;;;;5016623;28;20432;-92
2022/08/27 13:27:51;;;;;;;3.22;1.20;;;;;;;;;;5026850;28;20025;-91
2022/08/27 13:30:17;;;;;;;4.45;0.82;;;;;;;;;;5017883;28;20495;-92
2022/08/27 13:32:44;;;;;;;2.88;1.10;;;;;;;;;;5021890;28;20029;-92
2022/08/27 13:35:11;;;;;;;6.93;2.28;;;;;;;;;;5023333;28;20099;-91
2022/08/27 13:37:40;;;;;;;3.22;1.40;;;;;;;;;;5029642;28;20033;-92
2022/08/27 13:40:06;;;;;;;2.63;1.13;;;;;;;;;;5023710;28;20310;-92
2022/08/27 13:42:33;;;;;;;3.60;1.27;;;;;;;;;;5051111;28;20111;-92
2022/08/27 13:45:04;;;;;;;4.90;1.33;;;;;;;;;;5022257;28;20029;-91
2022/08/27 13:47:32;;;;;;;7.35;1.67;;;;;;;;;;5020895;28;20026;-92
2022/08/27 13:50:06;;;;;;;6.25;1.65;;;;;;;;;;5027846;28;20571;-92
2022/08/27 13:54:11;;;;;;;4.35;1.35;;;;;;;;;;5025839;28;20037;-92
2022/08/27 13:55:27;;;;;;;3.05;1.40;;;;;;;;;;5040058;28;20107;-92
2022/08/27 13:57:54;;;;;;;8.43;2.03;;;;;;;;;;5027252;28;20086;-91
2022/08/27 14:00:23;;;;;;;3.55;1.30;;;;;;;;;;5021391;28;20446;-92
2022/08/27 14:02:50;;;;;;;5.53;1.98;;;;;;;;;;5027968;28;20076;-92
2022/08/27 14:05:22;;;;;;;5.70;1.55;;;;;;;;;;5016531;28;20033;-92
2022/08/27 14:07:49;;;;;;;7.80;1.48;;;;;;;;;;5020832;28;20033;-92
2022/08/27 14:10:18;;;;;;;16.40;1.90;;;;;;;;;;5020435;28;20115;-92
2022/08/27 14:12:55;;;;;;;3.25;1.45;;;;;;;;;;5042219;28;20040;-91
2022/08/27 14:15:24;;;;;;;5.95;1.90;;;;;;;;;;5016330;28;20188;-92
2022/08/27 14:17:50;;;;;;;8.43;1.70;;;;;;;;;;5018631;28;20087;-91
2022/08/27 14:20:17;;;;;;;5.10;1.80;;;;;;;;;;5019038;28;20056;-91
2022/08/27 14:22:44;;;;;;;2.47;1.05;;;;;;;;;;5023463;28;20029;-91
2022/08/27 14:25:10;;;;;;;8.95;1.40;;;;;;;;;;5020089;28;20033;-91
2022/08/27 14:27:36;;;;;;;6.93;1.73;;;;;;;;;;5021085;28;20037;-92
2022/08/27 14:30:04;;;;;;;8.38;1.70;;;;;;;;;;5024488;28;20076;-92
2022/08/27 14:32:32;;;;;;;5.03;1.33;;;;;;;;;;5015708;28;20032;-92
2022/08/27 14:34:58;;;;;;;16.90;1.77;;;;;;;;;;5019855;28;20222;-91
2022/08/27 14:37:24;;;;;;;5.28;1.50;;;;;;;;;;5019015;28;20383;-91
2022/08/27 14:39:50;;;;;;;4.60;1.70;;;;;;;;;;5022442;28;20205;-91
2022/08/27 14:42:16;;;;;;;6.15;1.40;;;;;;;;;;5027248;28;20033;-91
2022/08/27 14:44:43;;;;;;;6.38;1.52;;;;;;;;;;5009101;28;20493;-92
2022/08/27 14:47:10;;;;;;;4.90;1.55;;;;;;;;;;5007265;28;20682;-91
2022/08/27 14:49:38;;;;;;;7.68;1.88;;;;;;;;;;5015161;28;20032;-92
2022/08/27 14:52:05;;;;;;;8.55;1.20;;;;;;;;;;5027011;28;20111;-91
2022/08/27 14:54:31;;;;;;;5.88;1.23;;;;;;;;;;5014048;28;20029;-92
2022/08/27 14:56:57;;;;;;;6.75;1.70;;;;;;;;;;5023614;28;20376;-91
2022/08/27 14:59:24;;;;;;;4.72;1.52;;;;;;;;;;5007108;28;20032;-92
2022/08/27 15:01:53;;;;;;;2.92;1.38;;;;;;;;;;5012878;28;20326;-92